sensor_id;sensor_type;location;lat;lon;timestamp;P1;durP1;ratioP1;P2;durP2;ratioP2
60306;SDS011;46155;52.364;6.580;2023-04-06T03:02:37;13.50;;;8.37;;
60306;SDS011;46155;52.364;6.580;2023-04-06T03:05:02;12.70;;;8.87;;
60306;SDS011;46155;52.364;6.580;2023-04-06T03:07:28;15.93;;;9.80;;
60306;SDS011;46155;52.364;6.580;2023-04-06T03:09:53;15.63;;;10.17;;
60306;SDS011;46155;52.364;6.580;2023-04-06T03:12:19;9.97;;;8.93;;
60306;SDS011;46155;52.364;6.580;2023-04-06T03:14:45;17.77;;;8.63;;
60306;SDS011;46155;52.364;6.580;2023-04-06T03:17:10;11.23;;;8.63;;
60306;SDS011;46155;52.364;6.580;2023-04-06T03:19:35;10.23;;;8.17;;
60306;SDS011;46155;52.364;6.580;2023-04-06T03:22:01;15.87;;;8.87;;
60306;SDS011;46155;52.364;6.580;2023-04-06T03:24:27;17.77;;;9.63;;
60306;SDS011;46155;52.364;6.580;2023-04-06T03:26:52;15.60;;;9.03;;
60306;SDS011;46155;52.364;6.580;2023-04-06T03:29:17;14.60;;;8.87;;
60306;SDS011;46155;52.364;6.580;2023-04-06T03:31:43;12.73;;;8.87;;
60306;SDS011;46155;52.364;6.580;2023-04-06T03:34:08;12.57;;;9.37;;
60306;SDS011;46155;52.364;6.580;2023-04-06T03:36:34;12.13;;;9.43;;
60306;SDS011;46155;52.364;6.580;2023-04-06T03:39:00;11.83;;;8.93;;
60306;SDS011;46155;52.364;6.580;2023-04-06T03:41:25;11.50;;;8.93;;
60306;SDS011;46155;52.364;6.580;2023-04-06T03:43:51;16.83;;;10.13;;
60306;SDS011;46155;52.364;6.580;2023-04-06T03:46:16;13.20;;;8.93;;
60306;SDS011;46155;52.364;6.580;2023-04-06T03:48:41;10.63;;;8.87;;
60306;SDS011;46155;52.364;6.580;2023-04-06T03:51:07;11.20;;;8.10;;
60306;SDS011;46155;52.364;6.580;2023-04-06T03:53:32;19.30;;;10.17;;
60306;SDS011;46155;52.364;6.580;2023-04-06T03:55:57;13.97;;;8.57;;
60306;SDS011;46155;52.364;6.580;2023-04-06T03:58:23;14.37;;;10.07;;
60306;SDS011;46155;52.364;6.580;2023-04-06T04:00:48;10.63;;;8.63;;
60306;SDS011;46155;52.364;6.580;2023-04-06T04:03:13;11.43;;;8.53;;
60306;SDS011;46155;52.364;6.580;2023-04-06T04:05:39;14.67;;;8.23;;
60306;SDS011;46155;52.364;6.580;2023-04-06T04:08:04;16.30;;;9.90;;
60306;SDS011;46155;52.364;6.580;2023-04-06T04:10:30;14.83;;;9.00;;
60306;SDS011;46155;52.364;6.580;2023-04-06T04:12:56;14.50;;;9.13;;
60306;SDS011;46155;52.364;6.580;2023-04-06T04:15:21;13.63;;;8.97;;
60306;SDS011;46155;52.364;6.580;2023-04-06T04:17:47;14.73;;;9.17;;
60306;SDS011;46155;52.364;6.580;2023-04-06T04:20:14;11.47;;;9.30;;
60306;SDS011;46155;52.364;6.580;2023-04-06T04:22:40;12.00;;;8.63;;
60306;SDS011;46155;52.364;6.580;2023-04-06T04:25:05;13.37;;;9.50;;
60306;SDS011;46155;52.364;6.580;2023-04-06T04:27:31;15.90;;;10.90;;
60306;SDS011;46155;52.364;6.580;2023-04-06T04:29:56;12.67;;;9.57;;
60306;SDS011;46155;52.364;6.580;2023-04-06T04:32:21;14.27;;;10.97;;
60306;SDS011;46155;52.364;6.580;2023-04-06T04:34:46;18.03;;;11.27;;
60306;SDS011;46155;52.364;6.580;2023-04-06T04:37:12;14.10;;;9.93;;
60306;SDS011;46155;52.364;6.580;2023-04-06T04:39:37;13.47;;;10.00;;
60306;SDS011;46155;52.364;6.580;2023-04-06T04:42:02;14.63;;;8.60;;
60306;SDS011;46155;52.364;6.580;2023-04-06T04:44:27;15.80;;;9.17;;
60306;SDS011;46155;52.364;6.580;2023-04-06T04:46:53;12.20;;;9.90;;
60306;SDS011;46155;52.364;6.580;2023-04-06T04:49:18;12.77;;;10.20;;
60306;SDS011;46155;52.364;6.580;2023-04-06T04:51:43;14.57;;;10.13;;
60306;SDS011;46155;52.364;6.580;2023-04-06T04:54:09;14.27;;;8.97;;
60306;SDS011;46155;52.364;6.580;2023-04-06T04:56:34;15.20;;;10.27;;
60306;SDS011;46155;52.364;6.580;2023-04-06T04:59:00;16.23;;;9.00;;
60306;SDS011;46155;52.364;6.580;2023-04-06T05:01:25;12.93;;;8.70;;
60306;SDS011;46155;52.364;6.580;2023-04-06T05:03:50;17.17;;;9.53;;
60306;SDS011;46155;52.364;6.580;2023-04-06T05:06:16;13.47;;;8.77;;
60306;SDS011;46155;52.364;6.580;2023-04-06T05:08:41;12.13;;;8.73;;
60306;SDS011;46155;52.364;6.580;2023-04-06T05:11:07;14.90;;;8.70;;
60306;SDS011;46155;52.364;6.580;2023-04-06T05:13:33;13.17;;;9.17;;
60306;SDS011;46155;52.364;6.580;2023-04-06T05:15:58;17.93;;;9.30;;
60306;SDS011;46155;52.364;6.580;2023-04-06T05:18:24;14.53;;;9.30;;
60306;SDS011;46155;52.364;6.580;2023-04-06T05:20:50;20.40;;;9.93;;
60306;SDS011;46155;52.364;6.580;2023-04-06T05:23:16;20.33;;;9.63;;
60306;SDS011;46155;52.364;6.580;2023-04-06T05:25:42;17.77;;;9.00;;
60306;SDS011;46155;52.364;6.580;2023-04-06T05:28:07;14.03;;;9.47;;
60306;SDS011;46155;52.364;6.580;2023-04-06T05:30:32;16.70;;;8.67;;
60306;SDS011;46155;52.364;6.580;2023-04-06T05:32:58;16.03;;;8.37;;
60306;SDS011;46155;52.364;6.580;2023-04-06T05:35:23;17.20;;;9.27;;
60306;SDS011;46155;52.364;6.580;2023-04-06T05:37:49;18.03;;;9.73;;
60306;SDS011;46155;52.364;6.580;2023-04-06T05:40:14;16.90;;;8.63;;
60306;SDS011;46155;52.364;6.580;2023-04-06T05:42:40;12.83;;;8.87;;
60306;SDS011;46155;52.364;6.580;2023-04-06T05:45:07;13.93;;;8.27;;
60306;SDS011;46155;52.364;6.580;2023-04-06T05:47:34;14.20;;;9.00;;
60306;SDS011;46155;52.364;6.580;2023-04-06T05:50:00;8.67;;;7.03;;
60306;SDS011;46155;52.364;6.580;2023-04-06T05:52:25;18.73;;;9.80;;
60306;SDS011;46155;52.364;6.580;2023-04-06T05:54:51;15.97;;;8.70;;
60306;SDS011;46155;52.364;6.580;2023-04-06T05:57:16;13.43;;;9.17;;
60306;SDS011;46155;52.364;6.580;2023-04-06T05:59:42;13.73;;;8.73;;
60306;SDS011;46155;52.364;6.580;2023-04-06T06:02:07;16.13;;;9.13;;
60306;SDS011;46155;52.364;6.580;2023-04-06T06:04:33;31.33;;;9.90;;
60306;SDS011;46155;52.364;6.580;2023-04-06T06:06:58;19.00;;;9.73;;
60306;SDS011;46155;52.364;6.580;2023-04-06T06:09:24;16.17;;;8.33;;
60306;SDS011;46155;52.364;6.580;2023-04-06T06:11:49;15.23;;;8.23;;
60306;SDS011;46155;52.364;6.580;2023-04-06T06:14:14;19.67;;;10.30;;
60306;SDS011;46155;52.364;6.580;2023-04-06T06:16:40;14.40;;;8.90;;
60306;SDS011;46155;52.364;6.580;2023-04-06T06:19:05;17.60;;;9.40;;
60306;SDS011;46155;52.364;6.580;2023-04-06T06:21:31;17.03;;;9.13;;
60306;SDS011;46155;52.364;6.580;2023-04-06T06:23:56;18.80;;;9.53;;
60306;SDS011;46155;52.364;6.580;2023-04-06T06:26:22;14.53;;;9.27;;
60306;SDS011;46155;52.364;6.580;2023-04-06T06:28:47;15.30;;;9.07;;
60306;SDS011;46155;52.364;6.580;2023-04-06T06:31:12;17.33;;;9.37;;
60306;SDS011;46155;52.364;6.580;2023-04-06T06:33:38;16.60;;;10.20;;
60306;SDS011;46155;52.364;6.580;2023-04-06T06:36:03;16.87;;;9.13;;
60306;SDS011;46155;52.364;6.580;2023-04-06T06:38:28;20.70;;;10.13;;
60306;SDS011;46155;52.364;6.580;2023-04-06T06:40:54;17.47;;;10.00;;
60306;SDS011;46155;52.364;6.580;2023-04-06T06:43:19;18.27;;;9.77;;
60306;SDS011;46155;52.364;6.580;2023-04-06T06:45:44;24.93;;;11.60;;
60306;SDS011;46155;52.364;6.580;2023-04-06T06:48:10;19.73;;;9.93;;
60306;SDS011;46155;52.364;6.580;2023-04-06T06:50:35;21.43;;;10.40;;
60306;SDS011;46155;52.364;6.580;2023-04-06T06:53:01;18.47;;;10.63;;
60306;SDS011;46155;52.364;6.580;2023-04-06T06:55:26;18.10;;;10.20;;
60306;SDS011;46155;52.364;6.580;2023-04-06T06:57:52;17.63;;;10.23;;
60306;SDS011;46155;52.364;6.580;2023-04-06T07:00:18;16.47;;;9.50;;
60306;SDS011;46155;52.364;6.580;2023-04-06T07:02:45;17.17;;;10.60;;
60306;SDS011;46155;52.364;6.580;2023-04-06T07:05:11;21.53;;;11.90;;
60306;SDS011;46155;52.364;6.580;2023-04-06T07:07:36;21.57;;;11.60;;
60306;SDS011;46155;52.364;6.580;2023-04-06T07:10:02;19.53;;;10.27;;
60306;SDS011;46155;52.364;6.580;2023-04-06T07:12:27;21.07;;;10.93;;
60306;SDS011;46155;52.364;6.580;2023-04-06T07:14:53;22.87;;;10.83;;
60306;SDS011;46155;52.364;6.580;2023-04-06T07:17:18;24.23;;;11.10;;
60306;SDS011;46155;52.364;6.580;2023-04-06T07:19:43;29.07;;;12.80;;
60306;SDS011;46155;52.364;6.580;2023-04-06T07:22:10;26.93;;;12.07;;
60306;SDS011;46155;52.364;6.580;2023-04-06T07:24:35;19.10;;;11.83;;
60306;SDS011;46155;52.364;6.580;2023-04-06T07:27:00;18.57;;;11.37;;
60306;SDS011;46155;52.364;6.580;2023-04-06T07:29:26;21.83;;;11.87;;
60306;SDS011;46155;52.364;6.580;2023-04-06T07:31:52;30.87;;;11.60;;
60306;SDS011;46155;52.364;6.580;2023-04-06T07:34:18;20.90;;;11.90;;
60306;SDS011;46155;52.364;6.580;2023-04-06T07:36:43;19.93;;;12.60;;
60306;SDS011;46155;52.364;6.580;2023-04-06T07:39:08;26.40;;;11.57;;
60306;SDS011;46155;52.364;6.580;2023-04-06T07:41:34;22.93;;;12.03;;
60306;SDS011;46155;52.364;6.580;2023-04-06T07:43:59;16.27;;;11.17;;
60306;SDS011;46155;52.364;6.580;2023-04-06T07:46:25;20.10;;;11.93;;
60306;SDS011;46155;52.364;6.580;2023-04-06T07:48:50;17.13;;;11.80;;
60306;SDS011;46155;52.364;6.580;2023-04-06T07:51:16;18.87;;;12.87;;
60306;SDS011;46155;52.364;6.580;2023-04-06T07:53:42;20.43;;;12.40;;
60306;SDS011;46155;52.364;6.580;2023-04-06T07:56:08;21.77;;;12.20;;
60306;SDS011;46155;52.364;6.580;2023-04-06T07:58:34;20.10;;;12.00;;
60306;SDS011;46155;52.364;6.580;2023-04-06T08:00:59;19.60;;;12.00;;
60306;SDS011;46155;52.364;6.580;2023-04-06T08:03:25;20.10;;;12.30;;
60306;SDS011;46155;52.364;6.580;2023-04-06T08:05:51;22.40;;;13.70;;
60306;SDS011;46155;52.364;6.580;2023-04-06T08:08:17;17.20;;;12.27;;
60306;SDS011;46155;52.364;6.580;2023-04-06T08:10:43;25.73;;;12.80;;
60306;SDS011;46155;52.364;6.580;2023-04-06T08:13:08;21.53;;;12.13;;
60306;SDS011;46155;52.364;6.580;2023-04-06T08:15:34;23.13;;;13.23;;
60306;SDS011;46155;52.364;6.580;2023-04-06T08:17:59;21.13;;;11.40;;
60306;SDS011;46155;52.364;6.580;2023-04-06T08:20:25;20.83;;;12.67;;
60306;SDS011;46155;52.364;6.580;2023-04-06T08:22:50;23.07;;;12.50;;
60306;SDS011;46155;52.364;6.580;2023-04-06T08:25:15;20.23;;;12.60;;
60306;SDS011;46155;52.364;6.580;2023-04-06T08:27:41;23.20;;;14.70;;
60306;SDS011;46155;52.364;6.580;2023-04-06T08:30:06;17.97;;;11.97;;
60306;SDS011;46155;52.364;6.580;2023-04-06T08:32:32;29.43;;;12.80;;
60306;SDS011;46155;52.364;6.580;2023-04-06T08:34:57;20.33;;;12.13;;
60306;SDS011;46155;52.364;6.580;2023-04-06T08:37:22;26.83;;;11.83;;
60306;SDS011;46155;52.364;6.580;2023-04-06T08:39:48;19.47;;;11.77;;
60306;SDS011;46155;52.364;6.580;2023-04-06T08:42:16;21.30;;;11.87;;
60306;SDS011;46155;52.364;6.580;2023-04-06T08:44:45;21.87;;;12.33;;
60306;SDS011;46155;52.364;6.580;2023-04-06T08:47:12;21.90;;;12.47;;
60306;SDS011;46155;52.364;6.580;2023-04-06T08:49:37;19.07;;;12.60;;
60306;SDS011;46155;52.364;6.580;2023-04-06T08:52:05;29.73;;;12.53;;
60306;SDS011;46155;52.364;6.580;2023-04-06T08:54:32;22.33;;;12.23;;
60306;SDS011;46155;52.364;6.580;2023-04-06T08:56:57;19.63;;;11.90;;
60306;SDS011;46155;52.364;6.580;2023-04-06T08:59:23;21.40;;;12.40;;
60306;SDS011;46155;52.364;6.580;2023-04-06T09:01:50;22.27;;;11.93;;
60306;SDS011;46155;52.364;6.580;2023-04-06T09:04:17;22.13;;;13.00;;
60306;SDS011;46155;52.364;6.580;2023-04-06T09:06:43;25.93;;;12.47;;
60306;SDS011;46155;52.364;6.580;2023-04-06T09:09:08;26.73;;;13.00;;
60306;SDS011;46155;52.364;6.580;2023-04-06T09:11:46;23.17;;;12.83;;
60306;SDS011;46155;52.364;6.580;2023-04-06T09:14:13;23.10;;;12.40;;
60306;SDS011;46155;52.364;6.580;2023-04-06T09:16:40;20.17;;;12.87;;
60306;SDS011;46155;52.364;6.580;2023-04-06T09:19:07;22.00;;;12.13;;
60306;SDS011;46155;52.364;6.580;2023-04-06T09:21:33;26.70;;;13.73;;
60306;SDS011;46155;52.364;6.580;2023-04-06T09:23:59;20.47;;;12.73;;
60306;SDS011;46155;52.364;6.580;2023-04-06T09:26:25;22.60;;;13.10;;
60306;SDS011;46155;52.364;6.580;2023-04-06T09:28:58;24.13;;;12.50;;
60306;SDS011;46155;52.364;6.580;2023-04-06T09:31:29;19.27;;;13.23;;
60306;SDS011;46155;52.364;6.580;2023-04-06T09:33:57;26.17;;;13.90;;
60306;SDS011;46155;52.364;6.580;2023-04-06T09:36:34;29.40;;;13.87;;
60306;SDS011;46155;52.364;6.580;2023-04-06T09:39:02;24.77;;;13.50;;
60306;SDS011;46155;52.364;6.580;2023-04-06T09:41:29;34.60;;;15.27;;
60306;SDS011;46155;52.364;6.580;2023-04-06T09:44:06;24.67;;;13.93;;
60306;SDS011;46155;52.364;6.580;2023-04-06T09:46:39;23.90;;;14.43;;
60306;SDS011;46155;52.364;6.580;2023-04-06T09:49:06;34.03;;;16.60;;
60306;SDS011;46155;52.364;6.580;2023-04-06T09:54:01;27.50;;;14.57;;
60306;SDS011;46155;52.364;6.580;2023-04-06T09:56:31;24.87;;;15.00;;
60306;SDS011;46155;52.364;6.580;2023-04-06T09:59:08;28.20;;;14.57;;
60306;SDS011;46155;52.364;6.580;2023-04-06T10:01:35;27.20;;;14.43;;
60306;SDS011;46155;52.364;6.580;2023-04-06T10:06:51;26.73;;;14.37;;
60306;SDS011;46155;52.364;6.580;2023-04-06T10:09:17;28.40;;;15.17;;
60306;SDS011;46155;52.364;6.580;2023-04-06T10:11:47;26.60;;;14.03;;
60306;SDS011;46155;52.364;6.580;2023-04-06T10:14:14;25.37;;;15.17;;
60306;SDS011;46155;52.364;6.580;2023-04-06T10:16:40;31.00;;;16.30;;
60306;SDS011;46155;52.364;6.580;2023-04-06T10:19:10;34.17;;;15.17;;
60306;SDS011;46155;52.364;6.580;2023-04-06T10:21:41;29.37;;;15.00;;
60306;SDS011;46155;52.364;6.580;2023-04-06T10:24:13;30.17;;;15.07;;
60306;SDS011;46155;52.364;6.580;2023-04-06T10:26:39;27.50;;;15.03;;
60306;SDS011;46155;52.364;6.580;2023-04-06T10:29:05;23.77;;;15.07;;
60306;SDS011;46155;52.364;6.580;2023-04-06T10:31:30;26.23;;;15.67;;
60306;SDS011;46155;52.364;6.580;2023-04-06T10:33:56;27.93;;;15.00;;
60306;SDS011;46155;52.364;6.580;2023-04-06T10:36:24;24.57;;;15.17;;
60306;SDS011;46155;52.364;6.580;2023-04-06T10:38:55;29.03;;;16.40;;
60306;SDS011;46155;52.364;6.580;2023-04-06T10:41:22;26.97;;;14.83;;
60306;SDS011;46155;52.364;6.580;2023-04-06T10:43:54;29.70;;;16.50;;
60306;SDS011;46155;52.364;6.580;2023-04-06T10:46:24;26.97;;;15.43;;
60306;SDS011;46155;52.364;6.580;2023-04-06T10:48:51;29.10;;;15.93;;
60306;SDS011;46155;52.364;6.580;2023-04-06T10:51:17;26.60;;;16.33;;
60306;SDS011;46155;52.364;6.580;2023-04-06T10:53:44;31.17;;;15.77;;
60306;SDS011;46155;52.364;6.580;2023-04-06T10:56:12;32.03;;;15.53;;
60306;SDS011;46155;52.364;6.580;2023-04-06T10:58:49;30.57;;;16.40;;
60306;SDS011;46155;52.364;6.580;2023-04-06T11:01:16;26.83;;;16.10;;
60306;SDS011;46155;52.364;6.580;2023-04-06T11:03:44;28.47;;;15.63;;
60306;SDS011;46155;52.364;6.580;2023-04-06T11:06:10;26.87;;;15.23;;
60306;SDS011;46155;52.364;6.580;2023-04-06T11:08:35;33.63;;;15.90;;
60306;SDS011;46155;52.364;6.580;2023-04-06T11:11:16;26.50;;;16.23;;
60306;SDS011;46155;52.364;6.580;2023-04-06T11:13:48;31.13;;;16.47;;
60306;SDS011;46155;52.364;6.580;2023-04-06T11:16:17;26.00;;;15.80;;
60306;SDS011;46155;52.364;6.580;2023-04-06T11:19:02;28.70;;;15.83;;
60306;SDS011;46155;52.364;6.580;2023-04-06T11:21:34;29.67;;;15.20;;
60306;SDS011;46155;52.364;6.580;2023-04-06T11:24:38;35.07;;;16.43;;
60306;SDS011;46155;52.364;6.580;2023-04-06T11:26:57;34.90;;;16.30;;
60306;SDS011;46155;52.364;6.580;2023-04-06T11:29:27;26.50;;;14.63;;
60306;SDS011;46155;52.364;6.580;2023-04-06T11:31:54;26.43;;;16.00;;
60306;SDS011;46155;52.364;6.580;2023-04-06T11:34:24;28.60;;;15.00;;
60306;SDS011;46155;52.364;6.580;2023-04-06T11:36:54;27.37;;;14.83;;
60306;SDS011;46155;52.364;6.580;2023-04-06T11:39:24;23.90;;;13.93;;
60306;SDS011;46155;52.364;6.580;2023-04-06T11:41:51;27.47;;;14.67;;
60306;SDS011;46155;52.364;6.580;2023-04-06T11:44:33;24.17;;;13.93;;
60306;SDS011;46155;52.364;6.580;2023-04-06T11:47:10;28.13;;;14.07;;
60306;SDS011;46155;52.364;6.580;2023-04-06T11:49:37;23.13;;;14.00;;
60306;SDS011;46155;52.364;6.580;2023-04-06T11:52:13;21.77;;;14.40;;
60306;SDS011;46155;52.364;6.580;2023-04-06T11:54:49;25.43;;;15.47;;
60306;SDS011;46155;52.364;6.580;2023-04-06T11:57:16;24.63;;;14.07;;
60306;SDS011;46155;52.364;6.580;2023-04-06T11:59:43;27.00;;;15.13;;
60306;SDS011;46155;52.364;6.580;2023-04-06T12:02:08;32.37;;;16.37;;
60306;SDS011;46155;52.364;6.580;2023-04-06T12:04:34;30.30;;;15.30;;
60306;SDS011;46155;52.364;6.580;2023-04-06T12:06:59;28.10;;;15.47;;
60306;SDS011;46155;52.364;6.580;2023-04-06T12:09:25;33.50;;;15.37;;
60306;SDS011;46155;52.364;6.580;2023-04-06T12:11:50;50.87;;;16.40;;
60306;SDS011;46155;52.364;6.580;2023-04-06T12:14:16;24.87;;;15.13;;
60306;SDS011;46155;52.364;6.580;2023-04-06T12:16:41;28.33;;;15.60;;
60306;SDS011;46155;52.364;6.580;2023-04-06T12:19:07;29.87;;;16.23;;
60306;SDS011;46155;52.364;6.580;2023-04-06T12:21:33;30.97;;;15.83;;
60306;SDS011;46155;52.364;6.580;2023-04-06T12:24:01;24.17;;;15.33;;
60306;SDS011;46155;52.364;6.580;2023-04-06T12:26:27;25.37;;;15.13;;
60306;SDS011;46155;52.364;6.580;2023-04-06T12:28:52;27.00;;;14.57;;
60306;SDS011;46155;52.364;6.580;2023-04-06T12:31:18;34.57;;;15.63;;
60306;SDS011;46155;52.364;6.580;2023-04-06T12:33:46;26.27;;;15.27;;
60306;SDS011;46155;52.364;6.580;2023-04-06T12:36:13;22.53;;;15.27;;
60306;SDS011;46155;52.364;6.580;2023-04-06T12:38:40;25.07;;;14.30;;
60306;SDS011;46155;52.364;6.580;2023-04-06T12:41:06;30.60;;;15.87;;
60306;SDS011;46155;52.364;6.580;2023-04-06T12:43:31;20.80;;;14.87;;
60306;SDS011;46155;52.364;6.580;2023-04-06T12:45:57;24.87;;;15.63;;
60306;SDS011;46155;52.364;6.580;2023-04-06T12:48:22;26.83;;;15.43;;
60306;SDS011;46155;52.364;6.580;2023-04-06T12:51:00;23.70;;;13.77;;
60306;SDS011;46155;52.364;6.580;2023-04-06T12:53:27;24.10;;;13.80;;
60306;SDS011;46155;52.364;6.580;2023-04-06T12:55:53;19.90;;;12.37;;
60306;SDS011;46155;52.364;6.580;2023-04-06T12:58:20;21.67;;;13.10;;
60306;SDS011;46155;52.364;6.580;2023-04-06T13:00:46;22.30;;;12.23;;
60306;SDS011;46155;52.364;6.580;2023-04-06T13:03:12;20.10;;;12.13;;
60306;SDS011;46155;52.364;6.580;2023-04-06T13:05:44;20.17;;;12.13;;
60306;SDS011;46155;52.364;6.580;2023-04-06T13:08:10;24.47;;;12.53;;
60306;SDS011;46155;52.364;6.580;2023-04-06T13:10:36;26.67;;;12.07;;
60306;SDS011;46155;52.364;6.580;2023-04-06T13:13:01;22.33;;;11.77;;
60306;SDS011;46155;52.364;6.580;2023-04-06T13:15:27;19.17;;;11.90;;
60306;SDS011;46155;52.364;6.580;2023-04-06T13:17:52;19.70;;;11.60;;
60306;SDS011;46155;52.364;6.580;2023-04-06T13:20:18;21.60;;;11.77;;
60306;SDS011;46155;52.364;6.580;2023-04-06T13:22:43;18.57;;;11.73;;
60306;SDS011;46155;52.364;6.580;2023-04-06T13:25:08;17.97;;;12.23;;
60306;SDS011;46155;52.364;6.580;2023-04-06T13:27:33;21.03;;;12.47;;
60306;SDS011;46155;52.364;6.580;2023-04-06T13:30:00;21.03;;;11.10;;
60306;SDS011;46155;52.364;6.580;2023-04-06T13:32:26;25.93;;;12.00;;
60306;SDS011;46155;52.364;6.580;2023-04-06T13:34:54;17.47;;;10.40;;
60306;SDS011;46155;52.364;6.580;2023-04-06T13:37:20;17.93;;;10.63;;
60306;SDS011;46155;52.364;6.580;2023-04-06T13:39:45;16.03;;;9.63;;
60306;SDS011;46155;52.364;6.580;2023-04-06T13:42:10;14.00;;;9.10;;
60306;SDS011;46155;52.364;6.580;2023-04-06T13:44:36;13.50;;;9.83;;
60306;SDS011;46155;52.364;6.580;2023-04-06T13:47:01;14.57;;;10.27;;
60306;SDS011;46155;52.364;6.580;2023-04-06T13:49:26;20.83;;;11.30;;
60306;SDS011;46155;52.364;6.580;2023-04-06T13:51:52;19.47;;;10.67;;
60306;SDS011;46155;52.364;6.580;2023-04-06T13:54:17;14.77;;;10.27;;
60306;SDS011;46155;52.364;6.580;2023-04-06T13:56:42;14.27;;;10.27;;
60306;SDS011;46155;52.364;6.580;2023-04-06T13:59:08;17.43;;;11.20;;
60306;SDS011;46155;52.364;6.580;2023-04-06T14:01:33;16.90;;;11.27;;
60306;SDS011;46155;52.364;6.580;2023-04-06T14:03:58;18.53;;;10.83;;
60306;SDS011;46155;52.364;6.580;2023-04-06T14:06:23;17.97;;;11.43;;
60306;SDS011;46155;52.364;6.580;2023-04-06T14:08:49;18.00;;;12.37;;
60306;SDS011;46155;52.364;6.580;2023-04-06T14:11:15;22.47;;;12.67;;
60306;SDS011;46155;52.364;6.580;2023-04-06T14:13:41;19.17;;;12.13;;
60306;SDS011;46155;52.364;6.580;2023-04-06T14:16:06;19.17;;;11.30;;
60306;SDS011;46155;52.364;6.580;2023-04-06T14:18:32;22.27;;;13.07;;
60306;SDS011;46155;52.364;6.580;2023-04-06T14:20:59;23.30;;;12.07;;
60306;SDS011;46155;52.364;6.580;2023-04-06T14:23:26;18.57;;;12.70;;
60306;SDS011;46155;52.364;6.580;2023-04-06T14:26:05;19.43;;;12.87;;
60306;SDS011;46155;52.364;6.580;2023-04-06T14:28:32;25.77;;;13.70;;
60306;SDS011;46155;52.364;6.580;2023-04-06T14:30:58;21.07;;;12.83;;
60306;SDS011;46155;52.364;6.580;2023-04-06T14:33:28;23.23;;;13.93;;
60306;SDS011;46155;52.364;6.580;2023-04-06T14:35:55;20.13;;;12.27;;
60306;SDS011;46155;52.364;6.580;2023-04-06T14:38:21;20.37;;;12.93;;
60306;SDS011;46155;52.364;6.580;2023-04-06T14:40:46;21.47;;;12.30;;
60306;SDS011;46155;52.364;6.580;2023-04-06T14:43:12;25.03;;;12.07;;
60306;SDS011;46155;52.364;6.580;2023-04-06T14:45:37;18.67;;;11.30;;
60306;SDS011;46155;52.364;6.580;2023-04-06T14:48:04;18.00;;;12.07;;
60306;SDS011;46155;52.364;6.580;2023-04-06T14:50:31;21.60;;;13.33;;
60306;SDS011;46155;52.364;6.580;2023-04-06T14:52:56;23.67;;;14.20;;
60306;SDS011;46155;52.364;6.580;2023-04-06T14:55:22;23.40;;;15.17;;
60306;SDS011;46155;52.364;6.580;2023-04-06T14:57:47;23.83;;;12.97;;
60306;SDS011;46155;52.364;6.580;2023-04-06T15:00:12;18.40;;;13.30;;
60306;SDS011;46155;52.364;6.580;2023-04-06T15:02:39;17.37;;;13.03;;
60306;SDS011;46155;52.364;6.580;2023-04-06T15:05:04;21.90;;;13.50;;
60306;SDS011;46155;52.364;6.580;2023-04-06T15:07:30;20.37;;;13.47;;
60306;SDS011;46155;52.364;6.580;2023-04-06T15:09:55;18.50;;;13.07;;
60306;SDS011;46155;52.364;6.580;2023-04-06T15:12:22;18.70;;;13.60;;
60306;SDS011;46155;52.364;6.580;2023-04-06T15:14:47;23.17;;;14.43;;
60306;SDS011;46155;52.364;6.580;2023-04-06T15:17:12;22.27;;;13.23;;
60306;SDS011;46155;52.364;6.580;2023-04-06T15:19:37;15.97;;;12.27;;
60306;SDS011;46155;52.364;6.580;2023-04-06T15:22:03;26.20;;;13.03;;
60306;SDS011;46155;52.364;6.580;2023-04-06T15:24:28;17.17;;;12.80;;
60306;SDS011;46155;52.364;6.580;2023-04-06T15:26:53;17.03;;;12.93;;
60306;SDS011;46155;52.364;6.580;2023-04-06T15:29:19;18.53;;;13.80;;
60306;SDS011;46155;52.364;6.580;2023-04-06T15:31:44;14.57;;;12.93;;
60306;SDS011;46155;52.364;6.580;2023-04-06T15:34:09;18.27;;;12.93;;
60306;SDS011;46155;52.364;6.580;2023-04-06T15:36:35;18.87;;;13.83;;
60306;SDS011;46155;52.364;6.580;2023-04-06T15:39:01;16.50;;;11.73;;
60306;SDS011;46155;52.364;6.580;2023-04-06T15:41:27;15.80;;;12.70;;
60306;SDS011;46155;52.364;6.580;2023-04-06T15:43:53;13.27;;;11.77;;
60306;SDS011;46155;52.364;6.580;2023-04-06T15:46:19;17.43;;;11.37;;
60306;SDS011;46155;52.364;6.580;2023-04-06T15:48:45;17.00;;;12.00;;
60306;SDS011;46155;52.364;6.580;2023-04-06T15:51:11;14.17;;;11.77;;
60306;SDS011;46155;52.364;6.580;2023-04-06T15:53:36;16.90;;;12.47;;
60306;SDS011;46155;52.364;6.580;2023-04-06T15:56:02;15.93;;;12.40;;
60306;SDS011;46155;52.364;6.580;2023-04-06T15:58:29;14.13;;;11.83;;
60306;SDS011;46155;52.364;6.580;2023-04-06T16:00:56;15.23;;;13.63;;
60306;SDS011;46155;52.364;6.580;2023-04-06T16:03:22;13.43;;;12.03;;
60306;SDS011;46155;52.364;6.580;2023-04-06T16:05:47;19.23;;;13.70;;
60306;SDS011;46155;52.364;6.580;2023-04-06T16:08:12;19.60;;;14.90;;
60306;SDS011;46155;52.364;6.580;2023-04-06T16:10:38;22.00;;;15.80;;
60306;SDS011;46155;52.364;6.580;2023-04-06T16:13:04;15.73;;;14.23;;
60306;SDS011;46155;52.364;6.580;2023-04-06T16:15:30;15.80;;;14.07;;
60306;SDS011;46155;52.364;6.580;2023-04-06T16:17:55;19.30;;;16.23;;
60306;SDS011;46155;52.364;6.580;2023-04-06T16:20:21;17.63;;;15.93;;
60306;SDS011;46155;52.364;6.580;2023-04-06T16:22:46;18.63;;;16.43;;
60306;SDS011;46155;52.364;6.580;2023-04-06T16:25:13;18.73;;;16.73;;
60306;SDS011;46155;52.364;6.580;2023-04-06T16:27:39;21.00;;;15.63;;
60306;SDS011;46155;52.364;6.580;2023-04-06T16:30:05;18.50;;;16.60;;
60306;SDS011;46155;52.364;6.580;2023-04-06T16:32:32;23.03;;;17.17;;
60306;SDS011;46155;52.364;6.580;2023-04-06T16:34:57;20.23;;;15.30;;
60306;SDS011;46155;52.364;6.580;2023-04-06T16:37:23;19.43;;;16.80;;
60306;SDS011;46155;52.364;6.580;2023-04-06T16:39:48;18.40;;;16.33;;
60306;SDS011;46155;52.364;6.580;2023-04-06T16:42:13;19.70;;;15.20;;
60306;SDS011;46155;52.364;6.580;2023-04-06T16:44:41;18.87;;;16.90;;
60306;SDS011;46155;52.364;6.580;2023-04-06T16:47:06;19.83;;;17.63;;
60306;SDS011;46155;52.364;6.580;2023-04-06T16:49:32;20.73;;;17.80;;
60306;SDS011;46155;52.364;6.580;2023-04-06T16:51:57;19.87;;;17.97;;
60306;SDS011;46155;52.364;6.580;2023-04-06T16:54:26;20.00;;;17.70;;
60306;SDS011;46155;52.364;6.580;2023-04-06T16:56:52;21.07;;;19.07;;
60306;SDS011;46155;52.364;6.580;2023-04-06T16:59:17;20.93;;;19.13;;
60306;SDS011;46155;52.364;6.580;2023-04-06T17:01:42;20.90;;;18.80;;
60306;SDS011;46155;52.364;6.580;2023-04-06T17:04:07;23.13;;;19.83;;
60306;SDS011;46155;52.364;6.580;2023-04-06T17:06:33;20.50;;;18.40;;
60306;SDS011;46155;52.364;6.580;2023-04-06T17:08:58;21.90;;;19.93;;
60306;SDS011;46155;52.364;6.580;2023-04-06T17:11:23;24.53;;;22.03;;
60306;SDS011;46155;52.364;6.580;2023-04-06T17:13:49;29.40;;;22.93;;
60306;SDS011;46155;52.364;6.580;2023-04-06T17:16:14;26.83;;;24.10;;
60306;SDS011;46155;52.364;6.580;2023-04-06T17:18:40;27.27;;;24.67;;
60306;SDS011;46155;52.364;6.580;2023-04-06T17:21:06;25.70;;;23.00;;
60306;SDS011;46155;52.364;6.580;2023-04-06T17:23:38;26.23;;;23.70;;
60306;SDS011;46155;52.364;6.580;2023-04-06T17:26:04;28.67;;;25.87;;